Time;durP1;ratioP1;P1;durP2;ratioP2;P2;SDS_P1;SDS_P2;PMS_P1;PMS_P2;Temp;Humidity;BMP_temperature;BMP_pressure;BME280_temperature;BME280_humidity;BME280_pressure;Samples;Min_cycle;Max_cycle;Signal;HPM_P1;HPM_P2
2021/03/13 00:01:29;;;;;;;0.80;0.40;;;;;;;4.20;100.00;98246.96;3818821;76;383804;-78
2021/03/13 00:06:51;;;;;;;0.80;0.60;;;;;;;4.22;100.00;98237.84;3819280;76;383974;-79
2021/03/13 00:12:13;;;;;;;0.90;0.70;;;;;;;4.29;100.00;98241.21;3819663;74;383583;-78
2021/03/13 00:17:34;;;;;;;0.80;0.40;;;;;;;4.32;100.00;98245.31;3813882;76;383781;-79
2021/03/13 00:22:57;;;;;;;0.97;0.60;;;;;;;4.36;100.00;98233.86;3813665;76;387689;-79
2021/03/13 00:28:18;;;;;;;1.40;0.67;;;;;;;4.43;100.00;98242.09;3813597;76;383820;-78
2021/03/13 00:33:39;;;;;;;1.00;0.80;;;;;;;4.49;100.00;98239.77;3814534;74;393150;-78
2021/03/13 00:39:01;;;;;;;0.80;0.50;;;;;;;4.49;100.00;98235.13;3813793;76;383575;-78
2021/03/13 00:44:22;;;;;;;1.17;1.07;;;;;;;4.54;100.00;98226.59;3813079;76;392210;-78
2021/03/13 00:49:43;;;;;;;0.80;0.40;;;;;;;4.51;100.00;98224.64;3813732;76;383576;-78
2021/03/13 00:55:06;;;;;;;1.00;0.57;;;;;;;4.58;100.00;98218.44;3815184;74;383630;-79
2021/03/13 01:00:28;;;;;;;1.17;0.60;;;;;;;4.63;100.00;98209.33;3813421;76;383571;-78
2021/03/13 01:05:49;;;;;;;3.57;1.13;;;;;;;4.64;100.00;98206.05;3813223;76;396101;-79
2021/03/13 01:11:11;;;;;;;0.90;0.47;;;;;;;4.71;100.00;98200.03;3815755;74;383816;-78
2021/03/13 01:16:34;;;;;;;0.80;0.40;;;;;;;4.74;100.00;98193.23;3815978;74;383781;-78
2021/03/13 01:21:55;;;;;;;1.43;1.13;;;;;;;4.75;100.00;98193.44;3815004;74;391851;-78
2021/03/13 01:27:17;;;;;;;1.13;0.90;;;;;;;4.78;100.00;98175.54;3813910;76;383568;-79
2021/03/13 01:32:38;;;;;;;0.80;0.40;;;;;;;4.86;100.00;98174.41;3813947;76;383572;-79
2021/03/13 01:37:59;;;;;;;0.90;0.63;;;;;;;4.91;100.00;98168.60;3812795;76;388029;-78
2021/03/13 01:43:20;;;;;;;0.90;0.50;;;;;;;4.96;100.00;98154.03;3812692;76;384095;-78
2021/03/13 01:48:43;;;;;;;0.80;0.40;;;;;;;4.94;100.00;98150.91;3814317;76;383837;-78
2021/03/13 01:54:05;;;;;;;1.00;0.77;;;;;;;4.96;100.00;98153.23;3813493;76;390136;-79
2021/03/13 01:59:26;;;;;;;0.80;0.40;;;;;;;5.06;100.00;98144.31;3813856;76;383820;-79
2021/03/13 02:04:47;;;;;;;0.80;0.47;;;;;;;4.96;100.00;98136.88;3814443;76;383809;-78
2021/03/13 02:10:14;;;;;;;1.00;0.50;;;;;;;5.02;100.00;98148.96;3813706;76;387962;-78
2021/03/13 02:15:53;;;;;;;0.80;0.50;;;;;;;4.98;100.00;98141.37;3813453;76;383961;-79
2021/03/13 02:21:35;;;;;;;2.20;2.10;;;;;;;5.05;100.00;98128.53;3813035;76;387744;-78
2021/03/13 02:27:14;;;;;;;1.03;0.87;;;;;;;4.99;100.00;98117.81;3813455;76;385741;-78
2021/03/13 02:32:39;;;;;;;0.90;0.60;;;;;;;5.16;100.00;98104.05;3815897;74;383590;-79
2021/03/13 02:38:03;;;;;;;0.90;0.57;;;;;;;5.12;100.00;98093.70;3813780;77;383616;-79
2021/03/13 02:43:26;;;;;;;0.80;0.50;;;;;;;5.19;100.00;98077.34;3813825;76;383692;-79
2021/03/13 02:48:48;;;;;;;0.90;0.63;;;;;;;5.25;100.00;98078.55;3812879;76;387731;-79
2021/03/13 02:54:11;;;;;;;0.80;0.40;;;;;;;5.31;100.00;98070.94;3812789;76;383529;-79
2021/03/13 02:59:35;;;;;;;0.80;0.40;;;;;;;5.38;100.00;98056.53;3813955;76;383604;-79
2021/03/13 03:04:57;;;;;;;0.80;0.50;;;;;;;5.32;100.00;98049.92;3795387;76;383852;-79
2021/03/13 03:10:20;;;;;;;2.73;0.90;;;;;;;5.33;100.00;98045.43;3814551;74;394025;-80
2021/03/13 03:15:41;;;;;;;0.90;0.60;;;;;;;5.29;100.00;98039.78;3816276;75;388005;-79
2021/03/13 03:21:04;;;;;;;0.90;0.60;;;;;;;5.37;100.00;98035.28;3819408;76;385634;-79
2021/03/13 03:26:25;;;;;;;1.33;1.23;;;;;;;5.37;100.00;98027.11;3819834;74;396339;-80
2021/03/13 03:31:47;;;;;;;1.10;0.70;;;;;;;5.31;100.00;98019.73;3815196;76;383808;-79
2021/03/13 03:37:08;;;;;;;2.80;1.60;;;;;;;5.36;100.00;98003.77;3807328;76;396289;-79
2021/03/13 03:42:33;;;;;;;0.80;0.50;;;;;;;5.41;100.00;97999.27;3808200;76;383806;-79
2021/03/13 03:47:55;;;;;;;0.80;0.40;;;;;;;5.38;100.00;97995.18;3808471;76;383804;-79
2021/03/13 03:53:19;;;;;;;0.90;0.60;;;;;;;5.39;100.00;98002.19;3807993;76;383575;-79
2021/03/13 03:58:45;;;;;;;1.30;1.00;;;;;;;5.38;100.00;97992.45;3807383;76;386717;-80
2021/03/13 04:04:09;;;;;;;0.80;0.50;;;;;;;5.35;100.00;97987.77;3808167;76;384020;-80
2021/03/13 04:09:32;;;;;;;0.80;0.40;;;;;;;5.33;100.00;97975.14;3808015;76;383868;-80
2021/03/13 04:14:53;;;;;;;0.80;0.40;;;;;;;5.35;100.00;97970.05;3789426;76;383584;-80
2021/03/13 04:20:15;;;;;;;0.80;0.40;;;;;;;5.33;100.00;97966.36;3813351;76;383587;-79
2021/03/13 04:25:37;;;;;;;0.80;0.50;;;;;;;5.27;100.00;97948.05;3819057;75;383849;-79
2021/03/13 04:30:59;;;;;;;0.80;0.50;;;;;;;5.25;100.00;97940.27;3840309;75;383551;-80
2021/03/13 04:36:21;;;;;;;0.90;0.50;;;;;;;5.27;100.00;97943.39;3815093;76;386121;-80
2021/03/13 04:41:44;;;;;;;0.80;0.40;;;;;;;5.24;100.00;97936.58;3802778;76;383867;-80
2021/03/13 04:47:06;;;;;;;0.90;0.67;;;;;;;5.30;100.00;97936.37;3815660;74;383828;-80
2021/03/13 04:52:27;;;;;;;0.87;0.47;;;;;;;5.33;100.00;97917.28;3814047;76;383528;-80
2021/03/13 04:57:49;;;;;;;0.80;0.50;;;;;;;5.38;100.00;97919.59;3813952;76;383808;-80
2021/03/13 05:03:11;;;;;;;0.80;0.40;;;;;;;5.41;100.00;97910.64;3814016;76;383584;-80
2021/03/13 05:08:33;;;;;;;1.27;0.90;;;;;;;5.53;100.00;97893.27;3815334;74;395086;-80
2021/03/13 05:13:54;;;;;;;1.30;1.13;;;;;;;5.61;100.00;97887.22;3815145;74;383828;-80
2021/03/13 05:19:15;;;;;;;0.80;0.50;;;;;;;5.61;100.00;97872.98;3814375;76;383610;-80
2021/03/13 05:24:36;;;;;;;0.80;0.50;;;;;;;5.60;100.00;97872.02;3814109;76;383906;-80
2021/03/13 05:29:58;;;;;;;0.80;0.43;;;;;;;5.60;100.00;97867.33;3814073;76;383808;-80
2021/03/13 05:35:21;;;;;;;0.97;0.50;;;;;;;5.60;100.00;97867.33;3815626;74;383834;-80
2021/03/13 05:40:41;;;;;;;0.80;0.40;;;;;;;5.51;100.00;97853.33;3814132;76;383840;-80
2021/03/13 05:46:03;;;;;;;0.80;0.40;;;;;;;5.48;100.00;97849.26;3813077;76;383824;-80
2021/03/13 05:51:25;;;;;;;0.80;0.40;;;;;;;5.52;100.00;97852.16;3814056;76;383536;-80
2021/03/13 05:56:46;;;;;;;0.80;0.40;;;;;;;5.49;100.00;97843.39;3814113;76;383556;-80
2021/03/13 06:02:10;;;;;;;0.80;0.40;;;;;;;5.54;100.00;97834.83;3814077;76;383805;-80
2021/03/13 06:07:32;;;;;;;0.90;0.50;;;;;;;5.58;100.00;97828.75;3814155;76;383583;-80
2021/03/13 06:12:54;;;;;;;1.20;0.80;;;;;;;5.69;100.00;97820.54;3813651;76;383630;-80
2021/03/13 06:18:15;;;;;;;0.80;0.47;;;;;;;5.70;100.00;97805.13;3817231;76;383587;-80
2021/03/13 06:23:37;;;;;;;1.00;0.80;;;;;;;5.80;100.00;97792.63;3819739;74;392147;-80
2021/03/13 06:28:58;;;;;;;0.80;0.40;;;;;;;5.81;100.00;97781.33;3820208;74;383579;-80
2021/03/13 06:34:26;;;;;;;1.20;0.77;;;;;;;5.91;100.00;97779.10;3820810;74;388899;-80
2021/03/13 06:39:48;;;;;;;0.90;0.60;;;;;;;6.02;100.00;97775.72;3819062;76;384773;-80
2021/03/13 06:45:10;;;;;;;0.90;0.50;;;;;;;6.13;100.00;97774.27;3819112;77;384825;-80
2021/03/13 06:50:31;;;;;;;0.80;0.50;;;;;;;6.21;100.00;97763.48;3818868;76;383836;-80
2021/03/13 06:55:56;;;;;;;0.83;0.47;;;;;;;6.29;100.00;97743.93;3820459;74;384579;-80
2021/03/13 07:01:19;;;;;;;0.80;0.40;;;;;;;6.41;100.00;97756.50;3819018;76;383788;-80
2021/03/13 07:06:46;;;;;;;2.80;0.80;;;;;;;6.51;100.00;97739.82;3818062;76;394217;-80
2021/03/13 07:12:24;;;;;;;0.80;0.40;;;;;;;6.58;100.00;97730.95;3820685;74;384555;-80
2021/03/13 07:17:51;;;;;;;0.90;0.70;;;;;;;6.68;100.00;97745.70;3816070;76;389779;-80
2021/03/13 07:23:15;;;;;;;0.80;0.50;;;;;;;6.76;100.00;97729.42;3813319;76;383866;-79
2021/03/13 07:28:43;;;;;;;0.80;0.40;;;;;;;6.81;100.00;97723.50;3813150;76;384551;-80
2021/03/13 07:34:07;;;;;;;2.83;1.37;;;;;;;6.88;100.00;97710.55;3813520;76;384545;-80
2021/03/13 07:39:31;;;;;;;0.80;0.40;;;;;;;6.92;100.00;97705.03;3813902;77;384794;-80
2021/03/13 07:44:52;;;;;;;0.80;0.40;;;;;;;7.01;100.00;97693.02;3814166;76;384539;-80
2021/03/13 07:50:16;;;;;;;0.80;0.50;;;;;;;7.03;100.00;97692.79;3814041;76;384535;-79
2021/03/13 07:55:38;;;;;;;4.97;0.50;;;;;;;7.12;100.00;97704.77;3813873;76;383571;-79
2021/03/13 08:00:59;;;;;;;0.80;0.50;;;;;;;7.14;100.00;97696.18;3813348;76;384767;-79
2021/03/13 08:06:21;;;;;;;0.80;0.40;;;;;;;7.19;100.00;97695.71;3813963;76;384538;-79
2021/03/13 08:11:46;;;;;;;0.80;0.50;;;;;;;7.22;100.00;97683.36;3813955;76;383828;-79
2021/03/13 08:17:10;;;;;;;0.80;0.40;;;;;;;7.30;100.00;97675.84;3813800;76;383588;-79
2021/03/13 08:22:32;;;;;;;0.90;0.50;;;;;;;7.38;100.00;97671.83;3815408;74;384806;-79
2021/03/13 08:27:54;;;;;;;0.80;0.40;;;;;;;7.41;100.00;97667.67;3815439;74;384549;-78
2021/03/13 08:33:18;;;;;;;0.80;0.40;;;;;;;7.50;100.00;97631.00;3814020;76;384818;-78
2021/03/13 08:38:56;;;;;;;2.17;0.80;;;;;;;7.60;100.00;97630.05;3813038;76;394997;-78
2021/03/13 08:44:23;;;;;;;1.20;0.80;;;;;;;7.61;100.00;97619.28;3813714;76;383611;-78
2021/03/13 08:49:48;;;;;;;0.90;0.60;;;;;;;7.70;100.00;97611.93;3812625;77;387699;-79
2021/03/13 08:55:09;;;;;;;0.97;0.53;;;;;;;7.81;100.00;97610.56;3813618;76;384140;-78
2021/03/13 09:00:30;;;;;;;1.07;0.50;;;;;;;7.99;100.00;97600.86;3813605;76;388918;-78
2021/03/13 09:05:51;;;;;;;1.20;1.00;;;;;;;8.12;100.00;97570.90;3813188;76;386695;-78
2021/03/13 09:11:13;;;;;;;0.80;0.40;;;;;;;8.34;100.00;97569.33;3814020;76;384553;-78
2021/03/13 09:16:40;;;;;;;1.73;0.50;;;;;;;8.40;100.00;97562.19;3813660;76;384588;-79
2021/03/13 09:22:02;;;;;;;0.90;0.60;;;;;;;8.42;100.00;97557.04;3809522;76;389830;-79
2021/03/13 09:27:25;;;;;;;0.80;0.57;;;;;;;8.48;100.00;97537.56;3828959;74;383804;-79
2021/03/13 09:32:51;;;;;;;0.80;0.50;;;;;;;8.48;100.00;97519.14;3835055;75;384561;-79
2021/03/13 09:38:12;;;;;;;0.80;0.40;;;;;;;8.46;100.00;97528.98;3827675;75;384525;-79
2021/03/13 09:43:40;;;;;;;0.80;0.40;;;;;;;8.40;100.00;97539.66;3851000;75;384773;-79
2021/03/13 09:49:02;;;;;;;0.80;0.40;;;;;;;8.32;100.00;97534.76;3827760;75;384787;-80
2021/03/13 09:54:23;;;;;;;0.90;0.60;;;;;;;8.31;100.00;97525.75;3828502;76;388092;-80
2021/03/13 09:59:44;;;;;;;0.93;0.80;;;;;;;8.30;100.00;97522.83;3827744;75;384496;-81
2021/03/13 10:05:07;;;;;;;0.80;0.40;;;;;;;8.40;100.00;97502.67;3844697;75;384542;-80
2021/03/13 10:10:28;;;;;;;1.60;0.70;;;;;;;8.63;100.00;97481.25;3827031;75;390802;-80
2021/03/13 10:15:49;;;;;;;0.90;0.50;;;;;;;8.65;100.00;97479.63;3851507;75;383773;-80
2021/03/13 10:21:10;;;;;;;2.87;0.80;;;;;;;8.79;100.00;97465.59;3820482;76;395273;-79
2021/03/13 10:26:31;;;;;;;0.80;0.40;;;;;;;8.86;100.00;97469.55;3818869;76;383784;-79
2021/03/13 10:31:52;;;;;;;0.80;0.50;;;;;;;8.97;100.00;97454.39;3819159;76;384527;-79
2021/03/13 10:37:18;;;;;;;0.80;0.40;;;;;;;9.06;99.78;97449.08;3818876;76;383796;-80
2021/03/13 10:42:39;;;;;;;0.90;0.70;;;;;;;8.98;99.53;97453.20;3817101;76;383583;-81
2021/03/13 10:48:06;;;;;;;2.90;0.87;;;;;;;9.04;100.00;97444.65;3820389;74;384501;-80
2021/03/13 10:53:39;;;;;;;0.80;0.40;;;;;;;9.05;99.62;97446.16;3818245;76;383575;-80
2021/03/13 10:59:00;;;;;;;0.80;0.40;;;;;;;9.09;95.33;97468.81;3819104;76;384517;-81
2021/03/13 11:04:21;;;;;;;0.80;0.40;;;;;;;9.09;100.00;97437.85;3819765;76;384529;-82
2021/03/13 11:09:48;;;;;;;4.00;1.17;;;;;;;9.27;100.00;97436.82;3818316;76;396380;-81
2021/03/13 11:15:11;;;;;;;0.90;0.60;;;;;;;9.06;100.00;97442.23;3818084;76;383583;-81
2021/03/13 11:20:34;;;;;;;1.67;0.80;;;;;;;8.77;100.00;97430.39;3808385;75;394990;-80
2021/03/13 11:25:56;;;;;;;0.80;0.40;;;;;;;8.69;100.00;97440.56;3808300;75;384533;-80
2021/03/13 11:31:18;;;;;;;0.80;0.50;;;;;;;8.72;100.00;97477.34;3802515;75;384567;-80
2021/03/13 11:36:40;;;;;;;0.90;0.50;;;;;;;8.65;100.00;97443.20;3779584;76;384520;-81
2021/03/13 11:42:01;;;;;;;0.80;0.40;;;;;;;8.74;100.00;97404.44;3792565;76;384512;-81
2021/03/13 11:47:22;;;;;;;0.90;0.50;;;;;;;8.69;100.00;97405.55;3811629;76;384490;-80
2021/03/13 11:52:43;;;;;;;0.80;0.40;;;;;;;8.92;100.00;97377.38;3793942;76;383879;-80
2021/03/13 11:58:05;;;;;;;0.80;0.40;;;;;;;9.23;100.00;97397.13;3808702;75;383587;-78
2021/03/13 12:03:26;;;;;;;0.90;0.50;;;;;;;9.42;100.00;97379.00;3814619;75;384743;-79
2021/03/13 12:08:47;;;;;;;1.10;0.50;;;;;;;9.38;100.00;97400.30;3806635;76;388951;-79
2021/03/13 12:14:09;;;;;;;0.80;0.40;;;;;;;9.06;100.00;97410.69;3807757;76;383971;-80
2021/03/13 12:19:30;;;;;;;0.90;0.50;;;;;;;8.49;100.00;97456.30;3797653;76;388903;-82
2021/03/13 12:24:52;;;;;;;0.90;0.63;;;;;;;7.81;100.00;97487.97;3803479;76;384047;-83
2021/03/13 12:30:19;;;;;;;0.80;0.40;;;;;;;7.21;100.00;97555.25;3801432;76;383836;-83
2021/03/13 12:35:38;;;;;;;0.80;0.50;;;;;;;6.75;100.00;97552.98;3812955;76;383776;-81
2021/03/13 12:40:59;;;;;;;0.80;0.40;;;;;;;6.58;100.00;97543.81;3812095;75;383595;-82
2021/03/13 12:46:20;;;;;;;0.80;0.40;;;;;;;6.48;100.00;97553.52;3814056;75;383623;-82
2021/03/13 12:51:41;;;;;;;1.10;0.60;;;;;;;6.44;100.00;97547.34;3814250;76;383583;-81
2021/03/13 12:57:04;;;;;;;0.80;0.50;;;;;;;6.34;100.00;97589.20;3813417;75;383547;-82
2021/03/13 13:02:25;;;;;;;0.80;0.40;;;;;;;6.10;100.00;97573.09;3812910;76;383571;-83
2021/03/13 13:07:46;;;;;;;0.80;0.40;;;;;;;6.09;100.00;97561.38;3812797;76;383667;-81
2021/03/13 13:13:13;;;;;;;0.80;0.50;;;;;;;6.03;100.00;97548.58;3814538;76;383827;-81
2021/03/13 13:18:36;;;;;;;0.80;0.50;;;;;;;6.02;100.00;97540.99;3787380;76;383588;-81
2021/03/13 13:23:59;;;;;;;0.80;0.40;;;;;;;6.09;100.00;97536.82;3821564;76;383581;-79
2021/03/13 13:29:22;;;;;;;0.80;0.40;;;;;;;6.15;100.00;97540.64;3819448;76;383548;-80
2021/03/13 13:34:43;;;;;;;0.80;0.40;;;;;;;6.19;100.00;97550.95;3819176;76;383781;-79
2021/03/13 13:40:07;;;;;;;0.80;0.40;;;;;;;6.22;100.00;97549.36;3812849;76;383827;-79
2021/03/13 13:45:28;;;;;;;0.90;0.40;;;;;;;6.24;100.00;97556.55;3819837;76;383578;-80
2021/03/13 13:50:49;;;;;;;0.80;0.40;;;;;;;6.32;100.00;97542.39;3819510;76;383789;-80
2021/03/13 13:56:12;;;;;;;0.90;0.53;;;;;;;6.34;100.00;97536.70;3818466;76;387792;-79
2021/03/13 14:01:34;;;;;;;0.80;0.40;;;;;;;6.36;100.00;97547.24;3819388;74;383867;-79
2021/03/13 14:06:55;;;;;;;0.80;0.50;;;;;;;6.38;100.00;97559.91;3818092;76;383544;-78
2021/03/13 14:12:16;;;;;;;0.90;0.47;;;;;;;6.43;100.00;97570.37;3818809;76;387809;-78
2021/03/13 14:17:37;;;;;;;0.90;0.53;;;;;;;6.48;100.00;97563.08;3818770;76;383576;-78
2021/03/13 14:22:58;;;;;;;0.80;0.40;;;;;;;6.56;100.00;97540.74;3817712;74;383875;-78
2021/03/13 14:28:20;;;;;;;0.80;0.40;;;;;;;6.73;100.00;97549.30;3815674;74;383595;-77
2021/03/13 14:33:41;;;;;;;0.80;0.40;;;;;;;6.90;100.00;97576.20;3815416;74;384561;-77
2021/03/13 14:39:04;;;;;;;0.80;0.50;;;;;;;7.08;100.00;97558.96;3813613;76;384557;-77
2021/03/13 14:44:27;;;;;;;0.80;0.50;;;;;;;7.10;100.00;97562.06;3812977;76;383622;-78
2021/03/13 14:49:48;;;;;;;0.80;0.50;;;;;;;6.97;100.00;97550.12;3813866;75;383573;-77
2021/03/13 14:55:10;;;;;;;0.90;0.67;;;;;;;6.94;100.00;97553.70;3813696;76;383605;-78
2021/03/13 15:00:32;;;;;;;0.80;0.40;;;;;;;6.88;100.00;97564.89;3812565;76;383540;-77
2021/03/13 15:05:54;;;;;;;0.93;0.77;;;;;;;6.73;100.00;97547.94;3813286;76;383785;-77
2021/03/13 15:11:17;;;;;;;28.93;1.63;;;;;;;6.68;100.00;97555.20;3813287;76;383579;-76
2021/03/13 15:16:38;;;;;;;0.80;0.40;;;;;;;6.73;100.00;97560.23;3812828;76;383788;-78
2021/03/13 15:21:59;;;;;;;0.80;0.40;;;;;;;6.83;100.00;97537.43;3804711;76;383568;-78
2021/03/13 15:27:20;;;;;;;0.80;0.40;;;;;;;6.85;100.00;97547.97;3818484;76;383584;-78
2021/03/13 15:32:43;;;;;;;1.20;0.50;;;;;;;6.87;100.00;97539.54;3817409;76;389849;-77
2021/03/13 15:38:04;;;;;;;0.80;0.60;;;;;;;6.77;100.00;97545.16;3819044;76;383576;-77
2021/03/13 15:43:36;;;;;;;4.20;0.70;;;;;;;6.87;100.00;97538.17;4000481;73;508871;-78
2021/03/13 15:48:56;;;;;;;0.80;0.40;;;;;;;7.08;100.00;97548.02;3923641;73;383580;-77
2021/03/13 15:54:17;;;;;;;3.20;0.70;;;;;;;6.66;100.00;97553.47;3920050;75;383801;-77
2021/03/13 15:59:38;;;;;;;1.40;1.20;;;;;;;6.59;100.00;97551.44;3919421;73;390787;-78
2021/03/13 16:04:59;;;;;;;1.63;1.23;;;;;;;6.59;100.00;97571.92;3919479;75;387764;-77
2021/03/13 16:10:21;;;;;;;1.10;0.97;;;;;;;6.49;100.00;97586.48;3919830;73;387992;-77
2021/03/13 16:15:42;;;;;;;2.30;1.27;;;;;;;6.53;100.00;97580.40;3919114;74;396386;-77
2021/03/13 16:21:04;;;;;;;0.80;0.43;;;;;;;6.53;100.00;97572.97;3920188;75;383845;-77
2021/03/13 16:26:26;;;;;;;0.80;0.50;;;;;;;6.32;100.00;97575.16;3920041;75;383794;-78
2021/03/13 16:31:47;;;;;;;0.80;0.43;;;;;;;6.39;100.00;97558.12;3920426;73;383568;-78
2021/03/13 16:37:08;;;;;;;1.00;0.70;;;;;;;6.54;100.00;97547.80;3919807;73;391848;-77
2021/03/13 16:42:30;;;;;;;0.90;0.50;;;;;;;6.40;100.00;97564.34;3929724;74;387758;-77
2021/03/13 16:47:52;;;;;;;1.70;1.10;;;;;;;6.29;100.00;97550.06;3933723;74;395026;-78
2021/03/13 16:53:16;;;;;;;0.80;0.40;;;;;;;6.29;100.00;97531.52;3933882;74;383536;-78
2021/03/13 16:58:37;;;;;;;0.87;0.50;;;;;;;6.31;100.00;97534.02;3933503;74;383576;-78
2021/03/13 17:03:59;;;;;;;1.10;0.70;;;;;;;6.26;100.00;97533.72;3932715;74;392905;-78
2021/03/13 17:09:20;;;;;;;0.80;0.50;;;;;;;6.26;100.00;97549.50;3933669;74;383607;-78
2021/03/13 17:14:41;;;;;;;0.80;0.40;;;;;;;6.27;100.00;97559.81;3933373;74;383584;-78
2021/03/13 17:20:05;;;;;;;0.90;0.50;;;;;;;6.29;100.00;97555.52;3933505;74;383597;-78
2021/03/13 17:25:26;;;;;;;1.07;0.97;;;;;;;6.23;100.00;97557.13;3932931;74;383843;-78
2021/03/13 17:30:47;;;;;;;0.80;0.50;;;;;;;6.26;100.00;97550.10;3933561;74;383632;-78
2021/03/13 17:36:09;;;;;;;0.90;0.50;;;;;;;6.23;100.00;97573.51;3933462;74;383561;-79
2021/03/13 17:41:31;;;;;;;1.10;0.73;;;;;;;6.27;100.00;97555.14;3919168;74;383862;-78
2021/03/13 17:46:52;;;;;;;0.90;0.63;;;;;;;6.23;100.00;97553.03;3893898;75;383608;-78
2021/03/13 17:52:14;;;;;;;1.00;0.90;;;;;;;6.19;100.00;97550.16;3893400;74;383577;-78
2021/03/13 17:57:35;;;;;;;1.20;0.60;;;;;;;6.24;100.00;97558.68;3893446;74;383538;-78
2021/03/13 18:02:56;;;;;;;1.57;1.30;;;;;;;6.30;100.00;97547.48;3893152;74;383534;-78
2021/03/13 18:08:18;;;;;;;1.03;0.80;;;;;;;6.28;100.00;97592.77;3893288;74;392201;-79
2021/03/13 18:13:39;;;;;;;1.77;0.70;;;;;;;5.88;100.00;97594.93;3893901;75;389869;-80
2021/03/13 18:19:00;;;;;;;1.03;0.63;;;;;;;5.54;100.00;97619.94;3894294;75;385722;-79
2021/03/13 18:24:21;;;;;;;0.90;0.63;;;;;;;5.34;100.00;97611.32;3893860;75;383821;-79
2021/03/13 18:29:44;;;;;;;0.80;0.60;;;;;;;5.34;100.00;97632.56;3893880;75;383573;-79
2021/03/13 18:35:07;;;;;;;0.80;0.40;;;;;;;5.32;100.00;97621.88;3894090;75;383833;-78
2021/03/13 18:40:28;;;;;;;0.80;0.40;;;;;;;5.28;100.00;97623.27;3895025;74;383699;-78
2021/03/13 18:45:49;;;;;;;0.80;0.60;;;;;;;5.30;100.00;97614.67;3933828;74;383564;-78
2021/03/13 18:51:12;;;;;;;0.80;0.50;;;;;;;5.36;100.00;97612.50;3933773;74;383845;-78
2021/03/13 18:56:33;;;;;;;3.53;1.00;;;;;;;5.40;100.00;97625.50;3932961;74;383613;-78
2021/03/13 19:01:54;;;;;;;0.80;0.53;;;;;;;5.44;100.00;97629.56;3933354;74;383818;-78
2021/03/13 19:07:17;;;;;;;1.23;1.13;;;;;;;5.45;100.00;97616.91;3934929;74;383541;-77
2021/03/13 19:12:38;;;;;;;0.87;0.60;;;;;;;5.46;100.00;97608.13;3933250;74;383769;-78
2021/03/13 19:17:59;;;;;;;0.80;0.40;;;;;;;5.37;100.00;97610.53;3933475;74;383537;-78
2021/03/13 19:23:22;;;;;;;0.80;0.40;;;;;;;5.36;100.00;97638.97;3933891;74;383998;-78
2021/03/13 19:28:43;;;;;;;0.80;0.50;;;;;;;5.39;100.00;97638.94;3933236;74;383829;-77
2021/03/13 19:34:05;;;;;;;0.90;0.63;;;;;;;5.42;100.00;97644.17;3933545;74;383876;-77
2021/03/13 19:39:26;;;;;;;0.80;0.40;;;;;;;5.47;100.00;97674.53;3933451;74;383576;-78
2021/03/13 19:44:47;;;;;;;0.80;0.40;;;;;;;5.44;100.00;97695.01;3933917;74;383573;-78
2021/03/13 19:50:08;;;;;;;0.80;0.40;;;;;;;5.36;100.00;97679.86;3933230;74;383580;-78
2021/03/13 19:55:30;;;;;;;1.10;0.70;;;;;;;5.30;100.00;97676.02;3933401;74;383859;-78
2021/03/13 20:00:57;;;;;;;0.80;0.40;;;;;;;5.27;100.00;97689.06;3933364;74;383774;-78
2021/03/13 20:06:17;;;;;;;0.83;0.47;;;;;;;5.20;100.00;97698.08;3935351;73;383537;-78
2021/03/13 20:11:39;;;;;;;0.90;0.60;;;;;;;5.20;100.00;97694.56;3933295;74;383566;-79
2021/03/13 20:17:02;;;;;;;1.93;0.80;;;;;;;5.18;100.00;97698.26;3932462;74;391876;-78
2021/03/13 20:22:23;;;;;;;7.83;2.20;;;;;;;5.11;100.00;97681.95;3932994;74;388794;-78
2021/03/13 20:27:44;;;;;;;1.00;0.67;;;;;;;5.19;100.00;97688.91;3933302;74;390129;-78
2021/03/13 20:33:06;;;;;;;0.80;0.47;;;;;;;5.27;100.00;97676.80;3933724;74;383577;-78
2021/03/13 20:38:27;;;;;;;2.03;1.70;;;;;;;5.23;100.00;97670.60;3933408;74;383580;-78
2021/03/13 20:43:50;;;;;;;1.43;1.33;;;;;;;5.36;100.00;97675.77;3914749;74;383588;-79
2021/03/13 20:49:14;;;;;;;0.80;0.50;;;;;;;5.53;100.00;97677.81;3896443;74;383789;-79
2021/03/13 20:54:35;;;;;;;1.57;1.10;;;;;;;5.56;100.00;97691.23;3892927;75;396306;-79
2021/03/13 20:59:56;;;;;;;0.80;0.50;;;;;;;5.58;100.00;97703.88;3894146;75;383577;-79
2021/03/13 21:05:17;;;;;;;2.53;1.40;;;;;;;5.64;100.00;97684.55;3893409;75;387795;-79
2021/03/13 21:10:39;;;;;;;0.90;0.63;;;;;;;5.48;100.00;97676.09;3893972;74;387802;-79
2021/03/13 21:16:00;;;;;;;1.23;0.90;;;;;;;5.47;100.00;97670.44;3893332;75;394984;-79
2021/03/13 21:21:22;;;;;;;0.93;0.60;;;;;;;5.49;100.00;97671.59;3894241;75;383577;-79
2021/03/13 21:26:44;;;;;;;1.80;0.80;;;;;;;5.43;100.00;97677.09;3893402;74;383580;-79
2021/03/13 21:32:06;;;;;;;0.80;0.50;;;;;;;5.43;100.00;97691.52;3894190;75;383581;-78
2021/03/13 21:37:28;;;;;;;0.80;0.50;;;;;;;5.51;100.00;97682.12;3893951;74;383908;-78
2021/03/13 21:42:50;;;;;;;0.80;0.40;;;;;;;5.31;100.00;97685.14;3894045;74;383798;-78
2021/03/13 21:48:12;;;;;;;0.83;0.60;;;;;;;5.36;100.00;97684.75;3893818;75;383561;-78
2021/03/13 21:53:33;;;;;;;0.90;0.73;;;;;;;5.27;100.00;97657.72;3893686;75;391918;-78
2021/03/13 21:58:56;;;;;;;1.53;1.13;;;;;;;5.15;100.00;97658.95;3893395;75;385711;-78
2021/03/13 22:04:17;;;;;;;0.80;0.70;;;;;;;5.10;100.00;97653.13;3895948;74;388012;-78
2021/03/13 22:09:41;;;;;;;1.67;1.23;;;;;;;5.14;100.00;97658.00;3892945;74;396070;-78
2021/03/13 22:15:02;;;;;;;1.73;0.90;;;;;;;5.19;100.00;97662.45;3893057;74;393185;-78
2021/03/13 22:20:24;;;;;;;4.10;1.40;;;;;;;5.11;100.00;97662.30;3892610;75;383783;-78
2021/03/13 22:25:45;;;;;;;0.80;0.50;;;;;;;5.22;100.00;97677.98;3893912;75;383909;-78
2021/03/13 22:31:07;;;;;;;0.90;0.60;;;;;;;5.21;100.00;97669.63;3893563;75;383577;-78
2021/03/13 22:36:28;;;;;;;2.23;0.90;;;;;;;5.18;100.00;97675.09;3893251;75;394269;-78
2021/03/13 22:41:50;;;;;;;1.20;1.07;;;;;;;5.14;100.00;97694.79;3892572;74;396072;-78
2021/03/13 22:47:11;;;;;;;3.23;1.03;;;;;;;5.26;100.00;97689.66;3928006;74;396083;-78
2021/03/13 22:52:33;;;;;;;0.90;0.60;;;;;;;5.20;100.00;97674.11;3932812;74;383628;-78
2021/03/13 22:57:55;;;;;;;0.80;0.50;;;;;;;5.22;100.00;97684.04;3933149;74;383577;-78
2021/03/13 23:03:16;;;;;;;1.33;0.80;;;;;;;5.19;100.00;97687.55;3932862;74;387768;-78
2021/03/13 23:08:38;;;;;;;0.80;0.40;;;;;;;5.13;100.00;97691.87;3933090;74;383794;-78
2021/03/13 23:13:59;;;;;;;1.90;0.60;;;;;;;5.11;100.00;97699.66;3932316;74;389843;-78
2021/03/13 23:19:20;;;;;;;0.80;0.50;;;;;;;5.14;100.00;97692.83;3933178;74;384222;-78
2021/03/13 23:24:41;;;;;;;0.80;0.50;;;;;;;5.15;100.00;97694.39;3933325;74;383766;-78
2021/03/13 23:30:11;;;;;;;1.40;0.70;;;;;;;5.13;100.00;97708.23;3932363;74;390121;-78
2021/03/13 23:35:36;;;;;;;1.00;0.60;;;;;;;5.01;100.00;97703.20;3934725;74;388059;-78
2021/03/13 23:40:58;;;;;;;0.80;0.40;;;;;;;4.79;100.00;97732.50;3935247;74;383812;-78
2021/03/13 23:46:19;;;;;;;0.80;0.60;;;;;;;4.50;100.00;97715.26;3918197;74;383580;-78
2021/03/13 23:51:40;;;;;;;3.47;1.27;;;;;;;4.30;100.00;97710.03;3932565;74;389819;-78
2021/03/13 23:57:02;;;;;;;0.90;0.80;;;;;;;4.23;100.00;97705.95;3932700;74;384198;-78
